This is the latest recevied weather packets stored in our database for station/object OK4PZ-5. If no packets are shown the sender has not sent any weather packets the latest 10 day(s).
| Time | Temp. | Humidity | Pressure | Rain* | Wind** | Luminosity | Snow |
|---|---|---|---|---|---|---|---|
| 1788599703 | 17.78° C | 76% | 1023 hPa | 0 mm | - | - | - |
| 1788598802 | 17.22° C | 79% | 1023 hPa | 0 mm | - | - | - |
| 1788597902 | 16.11° C | 82% | 1023 hPa | 0 mm | - | - | - |
| 1788597002 | 15.56° C | 86% | 1023 hPa | 0 mm | - | - | - |
| 1788596103 | 15° C | 90% | 1023 hPa | 0 mm | - | - | - |
| 1788595202 | 14.44° C | 91% | 1023 hPa | 0 mm | - | - | - |
| 1788594302 | 14.44° C | 92% | 1022 hPa | 0 mm | - | - | - |
| 1788593402 | 13.89° C | 93% | 1022 hPa | 0 mm | - | - | - |
| 1788592503 | 14.44° C | 94% | 1022 hPa | 0 mm | - | - | - |
| 1788591603 | 13.89° C | 94% | 1022 hPa | 0 mm | - | - | - |
| 1788590702 | 13.89° C | 95% | 1022 hPa | 0 mm | - | - | - |
| 1788589802 | 13.89° C | 96% | 1022 hPa | 1.78 mm | - | - | - |
| 1788588902 | 13.89° C | 96% | 1022 hPa | 1.27 mm | - | - | - |
| 1788588002 | 13.89° C | 95% | 1022 hPa | 1.27 mm | - | - | - |
| 1788587102 | 13.33° C | 95% | 1022 hPa | 3.56 mm | - | - | - |
| 1788586202 | 13.33° C | 93% | 1022 hPa | 4.83 mm | - | - | - |
| 1788585302 | 13.89° C | 92% | 1022 hPa | 1.78 mm | - | - | - |
| 1788584402 | 13.89° C | 90% | 1022 hPa | 1.78 mm | - | - | - |
| 1788583502 | 14.44° C | 87% | 1021 hPa | 3.05 mm | - | - | - |
| 1788582602 | 15° C | 86% | 1021 hPa | 0 mm | - | - | - |
| 1788581702 | 15° C | 87% | 1021 hPa | 0 mm | - | - | - |
| 1788580802 | 15.56° C | 85% | 1020 hPa | 0 mm | - | - | - |
| 1788579907 | 15.56° C | 81% | 1020 hPa | 0 mm | - | - | - |
| 1788579001 | 16.11° C | 78% | 1020 hPa | 0 mm | - | - | - |
| 1788578102 | 16.67° C | 73% | 1020 hPa | 0 mm | - | - | - |
* Rain latest hour (hover to see other rain measurements)
** Current wind speed in m/s (hover to see current wind gust speed)